Time;durP1;ratioP1;P1;durP2;ratioP2;P2;SDS_P1;SDS_P2;PMS_P1;PMS_P2;Temp;Humidity;BMP_temperature;BMP_pressure;BME280_temperature;BME280_humidity;BME280_pressure;Samples;Min_cycle;Max_cycle;Signal;HPM_P1;HPM_P2
2022/05/12 00:01:31;;;;;;;3.97;0.63;;;12.10;99.90;;;;;;5019669;28;20037;-68
2022/05/12 00:03:56;;;;;;;3.63;0.50;;;12.00;99.90;;;;;;5023879;28;20044;-68
2022/05/12 00:06:22;;;;;;;4.72;0.77;;;12.00;99.90;;;;;;5019323;28;20040;-68
2022/05/12 00:08:48;;;;;;;3.53;0.47;;;11.90;99.90;;;;;;5020302;28;20041;-67
2022/05/12 00:11:13;;;;;;;4.28;0.55;;;11.90;99.90;;;;;;5023210;28;20614;-68
2022/05/12 00:13:39;;;;;;;4.38;1.15;;;11.90;99.90;;;;;;5040349;28;20098;-68
2022/05/12 00:16:05;;;;;;;3.15;0.50;;;11.90;99.90;;;;;;5036003;28;20087;-68
2022/05/12 00:18:30;;;;;;;5.20;0.60;;;11.80;99.90;;;;;;5067182;28;20048;-67
2022/05/12 00:20:56;;;;;;;2.95;0.40;;;11.80;99.90;;;;;;5038262;28;20037;-68
2022/05/12 00:23:27;;;;;;;3.58;0.65;;;11.70;99.90;;;;;;5038371;28;20120;-68
2022/05/12 00:25:53;;;;;;;4.88;0.70;;;11.70;99.90;;;;;;5039936;28;20074;-67
2022/05/12 00:28:22;;;;;;;3.15;0.50;;;11.70;99.90;;;;;;5036085;28;20037;-68
2022/05/12 00:30:50;;;;;;;4.72;0.55;;;11.70;99.90;;;;;;5036706;28;20740;-68
2022/05/12 00:33:17;;;;;;;3.97;0.50;;;11.70;99.90;;;;;;5037757;28;21604;-68
2022/05/12 00:35:45;;;;;;;4.22;0.60;;;11.70;99.90;;;;;;5038984;28;20044;-68
2022/05/12 00:38:11;;;;;;;3.42;0.57;;;11.60;99.90;;;;;;5036941;28;20491;-67
2022/05/12 00:40:43;;;;;;;3.50;0.50;;;11.60;99.90;;;;;;5020934;28;20045;-67
2022/05/12 00:43:46;;;;;;;2.95;0.50;;;11.50;99.90;;;;;;5036828;28;20790;-67
2022/05/12 00:46:21;;;;;;;3.20;0.63;;;11.50;99.90;;;;;;5038824;28;20710;-67
2022/05/12 00:48:48;;;;;;;3.30;0.30;;;11.60;99.90;;;;;;5034675;28;20077;-67
2022/05/12 00:51:24;;;;;;;1.85;0.38;;;11.50;99.90;;;;;;5067699;28;20032;-67
2022/05/12 00:53:54;;;;;;;2.33;0.57;;;11.50;99.90;;;;;;5035343;28;20117;-67
2022/05/12 00:56:22;;;;;;;4.32;0.57;;;11.50;99.90;;;;;;5039644;28;20048;-67
2022/05/12 00:58:49;;;;;;;3.03;0.70;;;11.40;99.90;;;;;;5036040;28;20041;-67
2022/05/12 01:01:15;;;;;;;3.63;0.50;;;11.40;99.90;;;;;;5033329;28;20501;-67
2022/05/12 01:03:43;;;;;;;2.45;0.50;;;11.40;99.90;;;;;;5036014;28;20131;-67
2022/05/12 01:06:11;;;;;;;6.80;1.38;;;11.30;99.90;;;;;;5038422;28;20040;-67
2022/05/12 01:08:37;;;;;;;1.85;0.55;;;11.30;99.90;;;;;;5038524;28;20127;-67
2022/05/12 01:11:09;;;;;;;3.15;0.40;;;11.30;99.90;;;;;;5036191;28;20045;-67
2022/05/12 01:13:35;;;;;;;5.82;0.85;;;11.30;99.90;;;;;;5037271;28;20048;-67
2022/05/12 01:16:02;;;;;;;3.90;1.15;;;11.30;99.90;;;;;;5038386;28;20124;-67
2022/05/12 01:18:30;;;;;;;3.40;0.50;;;11.20;99.90;;;;;;5038945;28;20037;-67
2022/05/12 01:20:57;;;;;;;1.98;0.45;;;11.20;99.90;;;;;;5035509;28;20072;-67
2022/05/12 01:23:29;;;;;;;2.83;0.60;;;11.20;99.90;;;;;;5038554;28;20047;-67
2022/05/12 01:26:06;;;;;;;3.85;0.60;;;11.20;99.90;;;;;;5036511;28;20044;-67
2022/05/12 01:28:32;;;;;;;2.95;0.32;;;11.20;99.90;;;;;;5032119;28;20040;-68
2022/05/12 01:30:59;;;;;;;1.88;0.45;;;11.10;99.90;;;;;;5039187;28;20062;-68
2022/05/12 01:33:25;;;;;;;1.50;0.40;;;11.10;99.90;;;;;;5037171;28;20041;-68
2022/05/12 01:35:54;;;;;;;2.78;0.40;;;11.10;99.90;;;;;;5034569;28;20434;-68
2022/05/12 01:38:20;;;;;;;3.35;0.40;;;11.10;99.90;;;;;;5042338;28;20538;-68
2022/05/12 01:40:46;;;;;;;3.15;0.52;;;11.00;99.90;;;;;;5037968;28;20040;-67
2022/05/12 01:43:14;;;;;;;5.32;0.63;;;11.00;99.90;;;;;;5039870;28;20041;-68
2022/05/12 01:45:40;;;;;;;4.28;0.50;;;11.00;99.90;;;;;;5037925;28;20037;-68
2022/05/12 01:48:09;;;;;;;4.57;0.45;;;10.90;99.90;;;;;;5035452;28;20033;-67
2022/05/12 01:50:36;;;;;;;8.10;1.00;;;10.90;99.90;;;;;;5036498;28;20048;-68
2022/05/12 01:53:03;;;;;;;3.40;0.30;;;10.90;99.90;;;;;;5040044;28;20055;-67
2022/05/12 01:55:29;;;;;;;5.47;0.50;;;10.90;99.90;;;;;;5041560;28;20048;-67
2022/05/12 01:57:57;;;;;;;2.97;0.43;;;10.90;99.90;;;;;;5043695;28;20511;-67
2022/05/12 02:00:26;;;;;;;2.55;0.75;;;10.80;99.90;;;;;;5055631;28;20091;-67
2022/05/12 02:02:52;;;;;;;3.17;0.30;;;10.80;99.90;;;;;;5041652;28;20625;-67
2022/05/12 02:05:18;;;;;;;3.40;0.50;;;10.80;99.90;;;;;;5036322;28;20720;-67
2022/05/12 02:07:46;;;;;;;4.57;0.50;;;10.70;99.90;;;;;;5043004;28;20043;-67
2022/05/12 02:10:22;;;;;;;2.25;0.60;;;10.80;99.90;;;;;;5039148;28;20055;-67
2022/05/12 02:12:48;;;;;;;;;;;10.70;99.90;;;;;;5074307;28;20052;-67
2022/05/12 02:15:14;;;;;;;1.90;0.35;;;10.70;99.90;;;;;;5044080;28;19916;-67
2022/05/12 02:17:40;;;;;;;4.60;0.55;;;10.60;99.90;;;;;;5040370;28;20048;-67
2022/05/12 02:20:06;;;;;;;2.42;0.38;;;10.60;99.90;;;;;;5044934;28;20095;-68
2022/05/12 02:22:32;;;;;;;5.93;1.15;;;10.60;99.90;;;;;;5058048;28;20128;-68
2022/05/12 02:24:58;;;;;;;3.25;0.70;;;10.60;99.90;;;;;;5048722;28;20543;-68
2022/05/12 02:27:24;;;;;;;1.77;0.50;;;10.50;99.90;;;;;;5039179;28;20045;-67
2022/05/12 02:29:49;;;;;;;3.03;0.50;;;10.50;99.90;;;;;;5043612;28;20035;-67
2022/05/12 02:32:15;;;;;;;3.13;0.70;;;10.40;99.90;;;;;;5045535;28;20053;-67
2022/05/12 02:34:41;;;;;;;3.00;0.63;;;10.40;99.90;;;;;;5046387;28;20135;-67
2022/05/12 02:37:08;;;;;;;1.60;0.50;;;10.40;99.90;;;;;;5043437;28;20044;-67
2022/05/12 02:39:40;;;;;;;6.00;0.75;;;10.40;99.90;;;;;;5043108;28;20056;-67
2022/05/12 02:42:08;;;;;;;2.92;0.85;;;10.30;99.90;;;;;;5075518;28;20042;-68
2022/05/12 02:44:38;;;;;;;5.78;1.05;;;10.30;99.90;;;;;;5049754;28;20041;-67
2022/05/12 02:47:07;;;;;;;2.88;0.47;;;10.40;99.90;;;;;;5077273;28;20060;-67
2022/05/12 02:49:33;;;;;;;4.70;0.90;;;10.30;99.90;;;;;;5074830;28;20048;-67
2022/05/12 02:51:59;;;;;;;10.45;1.20;;;10.30;99.90;;;;;;5046821;28;20084;-67
2022/05/12 02:54:24;;;;;;;5.95;1.15;;;10.40;99.90;;;;;;5077658;28;20123;-67
2022/05/12 02:56:52;;;;;;;5.07;1.00;;;10.30;99.90;;;;;;5074034;28;20124;-67
2022/05/12 02:59:18;;;;;;;6.32;1.10;;;10.40;99.90;;;;;;5046679;28;20036;-67
2022/05/12 03:01:43;;;;;;;7.88;1.05;;;10.30;99.90;;;;;;5045556;28;20470;-68
2022/05/12 03:04:09;;;;;;;8.30;1.55;;;10.30;99.90;;;;;;5047754;28;20391;-67
2022/05/12 03:06:35;;;;;;;3.50;0.75;;;10.30;99.90;;;;;;5046353;28;20079;-67
2022/05/12 03:09:01;;;;;;;7.15;0.68;;;10.30;99.90;;;;;;5078020;28;20044;-67
2022/05/12 03:11:27;;;;;;;7.00;0.90;;;10.30;99.90;;;;;;5045128;28;20171;-67
2022/05/12 03:13:53;;;;;;;6.85;1.80;;;10.30;99.90;;;;;;5045158;28;20079;-67
2022/05/12 03:16:20;;;;;;;7.70;1.17;;;10.20;99.90;;;;;;5046787;28;20124;-67
2022/05/12 03:18:47;;;;;;;6.38;1.35;;;10.20;99.90;;;;;;5043958;28;20128;-67
2022/05/12 03:21:16;;;;;;;5.85;0.80;;;10.20;99.90;;;;;;5043939;28;20037;-67
2022/05/12 03:23:41;;;;;;;5.40;0.88;;;10.20;99.90;;;;;;5021566;28;20044;-67
2022/05/12 03:26:14;;;;;;;5.10;0.98;;;10.20;99.90;;;;;;5075419;28;20517;-67
2022/05/12 03:28:41;;;;;;;5.50;1.00;;;10.10;99.90;;;;;;5044883;28;20544;-67
2022/05/12 03:31:10;;;;;;;5.78;1.15;;;10.10;99.90;;;;;;5074663;28;20533;-67
2022/05/12 03:33:36;;;;;;;5.00;0.88;;;10.10;99.90;;;;;;5047509;28;20036;-67
2022/05/12 03:36:03;;;;;;;5.25;1.10;;;10.00;99.90;;;;;;5057769;28;20040;-66
2022/05/12 03:38:29;;;;;;;6.78;1.02;;;10.10;99.90;;;;;;5072118;28;21407;-68
2022/05/12 03:40:55;;;;;;;2.22;0.90;;;10.00;99.90;;;;;;5077673;28;20407;-68
2022/05/12 03:46:06;;;;;;;7.68;1.35;;;10.00;99.90;;;;;;5048141;28;20499;-67
2022/05/12 03:48:35;;;;;;;5.78;1.10;;;10.00;99.90;;;;;;5065709;28;20979;-67
2022/05/12 03:51:02;;;;;;;8.82;1.10;;;9.50;99.90;;;;;;5045007;28;20048;-67
2022/05/12 03:53:28;;;;;;;3.42;1.33;;;9.90;99.90;;;;;;5045188;28;20044;-67
2022/05/12 03:55:54;;;;;;;3.83;1.20;;;9.90;99.90;;;;;;5041734;28;20090;-67
2022/05/12 03:58:20;;;;;;;5.43;1.00;;;10.00;99.90;;;;;;5044672;28;20029;-67
2022/05/12 04:00:48;;;;;;;7.95;1.73;;;10.00;99.90;;;;;;5042116;28;20041;-67
2022/05/12 04:03:14;;;;;;;4.28;1.13;;;10.00;99.90;;;;;;5073164;28;20041;-68
2022/05/12 04:05:39;;;;;;;10.02;1.40;;;10.00;99.90;;;;;;5046724;28;20075;-68
2022/05/12 04:08:05;;;;;;;6.22;1.48;;;10.00;99.90;;;;;;5045849;28;20120;-68
2022/05/12 04:10:32;;;;;;;5.50;2.60;;;10.00;99.90;;;;;;5045456;28;20077;-68
2022/05/12 04:12:58;;;;;;;5.00;1.27;;;10.20;99.90;;;;;;5027435;28;20179;-68
2022/05/12 04:15:24;;;;;;;3.28;1.15;;;10.60;99.90;;;;;;5043642;28;20436;-68
2022/05/12 04:17:59;;;;;;;2.95;0.75;;;11.10;99.90;;;;;;5022301;28;20055;-68
2022/05/12 04:20:28;;;;;;;6.35;1.25;;;11.70;99.90;;;;;;5043569;28;20679;-68
2022/05/12 04:22:54;;;;;;;4.95;1.15;;;12.40;99.90;;;;;;5045307;28;20732;-68
2022/05/12 04:25:21;;;;;;;8.35;2.00;;;13.00;99.90;;;;;;5044887;28;20033;-68
2022/05/12 04:27:47;;;;;;;6.68;1.38;;;13.60;99.90;;;;;;5045293;28;20029;-68
2022/05/12 04:30:15;;;;;;;6.13;1.40;;;13.90;99.90;;;;;;5042863;28;20044;-68
2022/05/12 04:32:41;;;;;;;7.20;1.40;;;14.20;99.90;;;;;;5051630;28;20552;-68
2022/05/12 04:35:12;;;;;;;9.98;1.80;;;14.30;99.90;;;;;;5072862;28;20071;-68
2022/05/12 04:37:47;;;;;;;7.90;1.23;;;14.10;99.90;;;;;;5046409;28;20041;-68
2022/05/12 04:40:22;;;;;;;5.55;2.08;;;14.10;99.90;;;;;;5044468;28;20052;-68
2022/05/12 04:42:49;;;;;;;4.70;1.40;;;14.30;99.90;;;;;;5046416;28;20475;-68
2022/05/12 04:45:17;;;;;;;5.80;1.23;;;14.80;99.90;;;;;;5043264;28;20475;-68
2022/05/12 04:47:43;;;;;;;4.85;1.45;;;15.00;99.90;;;;;;5076926;28;20057;-68
2022/05/12 04:50:12;;;;;;;6.30;1.70;;;15.30;99.90;;;;;;5045465;28;20581;-68
2022/05/12 04:52:38;;;;;;;7.32;1.23;;;15.50;99.90;;;;;;5043761;28;20100;-68
2022/05/12 04:58:44;;;;;;;3.50;1.30;;;15.50;99.90;;;;;;5047597;28;20047;-67
2022/05/12 05:01:11;;;;;;;10.30;1.70;;;15.30;99.90;;;;;;5073300;28;20049;-67
2022/05/12 05:03:36;;;;;;;3.95;1.65;;;15.20;99.90;;;;;;5045710;28;20039;-68
2022/05/12 05:06:02;;;;;;;6.75;1.60;;;15.30;99.90;;;;;;5047655;28;20592;-68
2022/05/12 05:08:28;;;;;;;10.00;1.98;;;15.70;99.90;;;;;;5073367;28;20494;-68
2022/05/12 05:10:54;;;;;;;8.43;2.10;;;16.30;99.90;;;;;;5043548;28;20032;-68
2022/05/12 05:13:22;;;;;;;5.28;1.67;;;17.00;99.90;;;;;;5044164;28;20044;-68
2022/05/12 05:15:50;;;;;;;7.32;1.63;;;18.10;99.90;;;;;;5044183;28;20029;-68
2022/05/12 05:18:17;;;;;;;6.18;2.13;;;19.20;99.90;;;;;;5044834;28;20132;-68
2022/05/12 05:20:44;;;;;;;5.03;1.30;;;20.10;99.90;;;;;;5075861;28;20728;-68
2022/05/12 05:23:11;;;;;;;4.43;1.58;;;21.20;98.40;;;;;;5044064;28;20086;-68
2022/05/12 05:25:38;;;;;;;6.18;1.92;;;22.00;95.10;;;;;;5044893;28;20672;-68
2022/05/12 05:28:05;;;;;;;4.28;1.58;;;22.70;90.30;;;;;;5076976;28;20119;-68
2022/05/12 05:30:31;;;;;;;3.72;1.23;;;23.00;84.30;;;;;;5045300;28;20052;-68
2022/05/12 05:32:58;;;;;;;9.48;1.85;;;23.20;82.80;;;;;;5043998;28;20487;-68
2022/05/12 05:35:24;;;;;;;4.53;1.45;;;23.60;79.80;;;;;;5057297;28;20068;-69
2022/05/12 05:37:52;;;;;;;5.90;2.05;;;23.80;78.90;;;;;;5047535;28;20482;-69
2022/05/12 05:40:21;;;;;;;7.13;1.90;;;24.10;78.60;;;;;;5045497;28;20049;-69
2022/05/12 05:42:48;;;;;;;5.38;1.75;;;24.40;76.40;;;;;;5025551;28;20041;-69
2022/05/12 05:45:17;;;;;;;6.75;1.90;;;24.20;75.30;;;;;;5044723;28;20070;-69
2022/05/12 05:47:51;;;;;;;7.22;2.40;;;23.70;79.30;;;;;;5070454;28;20046;-69
2022/05/12 05:50:24;;;;;;;6.70;2.33;;;23.30;82.60;;;;;;5044225;28;20592;-68
2022/05/12 05:55:35;;;;;;;8.18;2.55;;;21.90;86.50;;;;;;5049366;28;20045;-68
2022/05/12 05:58:02;;;;;;;3.80;2.20;;;21.30;90.80;;;;;;5048065;28;20708;-68
2022/05/12 06:00:29;;;;;;;6.82;2.95;;;21.00;92.00;;;;;;5049099;28;20041;-68
2022/05/12 06:02:55;;;;;;;9.88;3.60;;;20.60;93.40;;;;;;5064320;28;20086;-67
2022/05/12 06:05:21;;;;;;;5.82;2.90;;;20.10;94.60;;;;;;5047893;28;20045;-68
2022/05/12 06:07:48;;;;;;;10.85;3.58;;;20.10;95.80;;;;;;5050750;28;20851;-68
2022/05/12 06:10:13;;;;;;;5.72;3.35;;;20.10;96.60;;;;;;5046749;28;20107;-68
2022/05/12 06:12:40;;;;;;;8.43;3.15;;;19.80;96.10;;;;;;5048480;28;20191;-68
2022/05/12 06:15:07;;;;;;;5.70;3.28;;;19.80;96.60;;;;;;5048331;28;20048;-67
2022/05/12 06:17:35;;;;;;;8.18;3.40;;;19.40;97.40;;;;;;5047522;28;20029;-68
2022/05/12 06:20:02;;;;;;;7.30;3.30;;;19.10;98.10;;;;;;5052221;28;20040;-68
2022/05/12 06:22:28;;;;;;;10.52;3.28;;;18.80;99.90;;;;;;5045465;28;20052;-67
2022/05/12 06:24:54;;;;;;;6.95;3.03;;;18.90;99.90;;;;;;5049445;28;20041;-67
2022/05/12 06:27:20;;;;;;;6.22;3.10;;;18.90;99.90;;;;;;5028516;28;20043;-68
2022/05/12 06:29:47;;;;;;;11.57;3.30;;;19.00;99.90;;;;;;5045801;28;20055;-68
2022/05/12 06:32:15;;;;;;;6.85;3.10;;;19.00;99.90;;;;;;5042046;28;20079;-68
2022/05/12 06:34:42;;;;;;;10.98;3.40;;;19.00;99.90;;;;;;5050488;28;20063;-68
2022/05/12 06:37:08;;;;;;;10.10;3.88;;;18.80;99.90;;;;;;5075115;28;20132;-68
2022/05/12 06:39:34;;;;;;;15.68;4.05;;;18.80;99.90;;;;;;5044037;28;20049;-68
2022/05/12 06:42:01;;;;;;;7.70;2.72;;;18.70;99.90;;;;;;5044713;28;20025;-68
2022/05/12 06:44:27;;;;;;;10.77;2.33;;;18.90;99.90;;;;;;5045955;28;20045;-68
2022/05/12 06:46:53;;;;;;;7.50;2.95;;;19.00;99.90;;;;;;5040540;28;20045;-67
2022/05/12 06:49:20;;;;;;;8.57;3.08;;;19.10;99.90;;;;;;5041832;28;20044;-67
2022/05/12 06:51:46;;;;;;;9.68;2.38;;;19.20;99.90;;;;;;5045931;28;20399;-68
2022/05/12 06:54:12;;;;;;;9.75;2.35;;;19.20;99.90;;;;;;5044948;28;20048;-67
2022/05/12 06:56:38;;;;;;;5.50;2.17;;;19.20;99.90;;;;;;5047781;28;20075;-68
2022/05/12 06:59:03;;;;;;;8.93;2.78;;;19.30;99.90;;;;;;5049552;28;20045;-68
2022/05/12 07:01:32;;;;;;;5.05;1.92;;;19.30;99.90;;;;;;5045010;28;20559;-67
2022/05/12 07:03:58;;;;;;;5.18;2.05;;;19.40;99.90;;;;;;5042724;28;20036;-67
2022/05/12 07:06:23;;;;;;;6.05;1.88;;;19.50;99.90;;;;;;5049502;28;20029;-67
2022/05/12 07:08:49;;;;;;;7.28;2.88;;;19.80;99.90;;;;;;5043208;28;20036;-67
2022/05/12 07:11:14;;;;;;;6.32;1.65;;;19.90;99.10;;;;;;5077461;28;20045;-67
2022/05/12 07:13:40;;;;;;;6.35;1.73;;;20.00;98.70;;;;;;5044356;28;20090;-68
2022/05/12 07:16:07;;;;;;;7.05;1.42;;;20.10;97.60;;;;;;5046503;28;20040;-68
2022/05/12 07:18:34;;;;;;;4.75;1.25;;;20.10;97.30;;;;;;5046057;28;20041;-68
2022/05/12 07:26:41;;;;;;;8.52;2.15;;;20.40;96.20;;;;;;5049782;28;20055;-68
2022/05/12 07:29:10;;;;;;;6.85;1.20;;;20.30;94.20;;;;;;5046357;28;20048;-67
2022/05/12 07:31:36;;;;;;;9.85;2.08;;;20.30;94.80;;;;;;5044076;28;20456;-67
2022/05/12 07:34:02;;;;;;;5.43;0.90;;;20.50;96.30;;;;;;5048573;28;20028;-67
2022/05/12 07:36:41;;;;;;;4.97;0.85;;;20.70;95.10;;;;;;5048736;28;20123;-68
2022/05/12 07:39:07;;;;;;;6.65;1.25;;;20.80;94.70;;;;;;5074923;28;20046;-68
2022/05/12 07:41:33;;;;;;;4.50;0.93;;;21.00;93.70;;;;;;5043615;28;20041;-68
2022/05/12 07:43:59;;;;;;;4.90;1.33;;;20.80;92.30;;;;;;5046990;28;20479;-68
2022/05/12 07:46:28;;;;;;;3.95;1.02;;;20.80;93.30;;;;;;5083349;28;20037;-68
2022/05/12 07:48:54;;;;;;;4.82;1.33;;;21.00;92.80;;;;;;5045230;28;21368;-68
2022/05/12 07:51:21;;;;;;;5.53;1.08;;;21.30;93.10;;;;;;5047390;28;20726;-68
2022/05/12 07:53:49;;;;;;;6.05;0.90;;;21.60;93.60;;;;;;5054447;28;20042;-67
2022/05/12 07:56:17;;;;;;;6.00;1.48;;;21.90;93.40;;;;;;5047162;28;20049;-67
2022/05/12 07:58:43;;;;;;;5.93;1.35;;;22.20;91.70;;;;;;5083917;28;20052;-67
2022/05/12 08:01:10;;;;;;;5.30;1.40;;;22.30;90.90;;;;;;5080250;28;20051;-67
2022/05/12 08:03:36;;;;;;;5.55;1.50;;;22.20;87.10;;;;;;5047754;28;20094;-67
2022/05/12 08:06:03;;;;;;;5.43;1.30;;;21.90;87.90;;;;;;5045061;28;20041;-67
2022/05/12 08:08:28;;;;;;;4.38;1.10;;;21.80;87.30;;;;;;5043307;28;20062;-68
2022/05/12 08:10:54;;;;;;;5.10;1.17;;;21.50;87.30;;;;;;5043673;28;20521;-68
2022/05/12 08:13:21;;;;;;;5.65;1.45;;;21.20;90.10;;;;;;5048682;28;20041;-67
2022/05/12 08:15:50;;;;;;;4.68;1.55;;;21.10;90.00;;;;;;5049089;28;20482;-68
2022/05/12 08:18:17;;;;;;;6.75;1.67;;;21.00;90.30;;;;;;5055664;28;20053;-67
2022/05/12 08:20:46;;;;;;;9.75;1.70;;;20.80;90.50;;;;;;5045911;28;20041;-68
2022/05/12 08:23:12;;;;;;;11.45;2.10;;;20.60;92.10;;;;;;5028628;28;20045;-68
2022/05/12 08:25:39;;;;;;;4.97;1.10;;;20.60;93.50;;;;;;5046728;28;20495;-68
2022/05/12 08:28:05;;;;;;;6.93;1.63;;;20.50;90.10;;;;;;5044470;28;20502;-68
2022/05/12 08:30:31;;;;;;;9.50;1.48;;;20.20;89.50;;;;;;5044578;28;20033;-67
2022/05/12 08:32:58;;;;;;;4.97;0.75;;;20.10;90.00;;;;;;5075940;28;20126;-68
2022/05/12 08:35:25;;;;;;;5.63;1.05;;;20.10;90.40;;;;;;5029914;28;20121;-68
2022/05/12 08:37:50;;;;;;;5.30;0.85;;;20.00;90.30;;;;;;5044769;28;20398;-67
2022/05/12 08:40:47;;;;;;;7.38;1.30;;;19.90;90.10;;;;;;5074116;28;20045;-67
2022/05/12 08:43:17;;;;;;;6.70;1.50;;;20.10;92.60;;;;;;5026635;28;20047;-67
2022/05/12 08:45:44;;;;;;;6.97;1.15;;;19.80;92.10;;;;;;5040641;28;20418;-67
2022/05/12 08:48:11;;;;;;;5.13;1.13;;;19.70;93.30;;;;;;5048272;28;20048;-67
2022/05/12 08:50:40;;;;;;;8.85;1.42;;;19.70;92.50;;;;;;5076510;28;20039;-67
2022/05/12 08:53:18;;;;;;;5.07;0.90;;;19.90;92.50;;;;;;5042255;28;20040;-67
2022/05/12 08:55:59;;;;;;;6.00;1.00;;;20.10;90.60;;;;;;5044919;28;20072;-67
2022/05/12 08:58:35;;;;;;;6.22;0.70;;;20.20;90.60;;;;;;5039419;28;20120;-67
2022/05/12 09:01:21;;;;;;;4.38;0.90;;;20.20;91.00;;;;;;5042633;28;20048;-67
2022/05/12 09:03:56;;;;;;;6.97;1.48;;;20.60;90.90;;;;;;5043108;28;20054;-68
2022/05/12 09:06:52;;;;;;;6.50;1.60;;;20.50;88.40;;;;;;5043547;28;20040;-67
2022/05/12 09:09:34;;;;;;;5.40;1.05;;;20.40;89.20;;;;;;5046595;28;20045;-67
2022/05/12 09:12:19;;;;;;;8.88;1.50;;;20.60;91.60;;;;;;5045638;28;20040;-67
2022/05/12 09:15:10;;;;;;;4.95;0.90;;;20.60;89.60;;;;;;5045373;28;20091;-67
2022/05/12 09:17:56;;;;;;;6.72;1.20;;;20.50;90.20;;;;;;5042936;28;20063;-67
2022/05/12 09:20:24;;;;;;;7.93;1.23;;;20.50;87.00;;;;;;5045891;28;20522;-67
2022/05/12 09:22:50;;;;;;;7.07;1.95;;;20.50;89.70;;;;;;5045670;28;20128;-67
2022/05/12 09:25:49;;;;;;;4.68;1.20;;;20.40;86.30;;;;;;5041029;28;20479;-67
2022/05/12 09:28:23;;;;;;;5.15;1.40;;;20.30;88.10;;;;;;5001772;28;20057;-67
2022/05/12 09:30:50;;;;;;;4.53;0.70;;;20.20;84.20;;;;;;5047340;28;20385;-67
2022/05/12 09:33:50;;;;;;;12.95;1.33;;;20.30;86.70;;;;;;5076864;28;20048;-67
2022/05/12 09:36:26;;;;;;;9.30;1.25;;;20.30;85.90;;;;;;5014276;28;20057;-67
2022/05/12 09:38:54;;;;;;;3.90;0.80;;;20.20;85.20;;;;;;5049392;28;20486;-67
2022/05/12 09:41:44;;;;;;;7.40;0.75;;;20.20;84.60;;;;;;5084541;28;20048;-67
2022/05/12 09:44:31;;;;;;;5.28;1.27;;;20.00;80.30;;;;;;5042156;28;20506;-67
2022/05/12 09:47:10;;;;;;;3.95;1.08;;;19.80;83.10;;;;;;5043614;28;20033;-67
2022/05/12 09:49:41;;;;;;;5.20;0.80;;;19.80;82.50;;;;;;5048690;28;20047;-67
2022/05/12 09:52:31;;;;;;;5.22;0.90;;;19.90;83.70;;;;;;5081916;28;20091;-67
2022/05/12 09:55:18;;;;;;;3.20;0.47;;;19.90;82.80;;;;;;5056146;28;20128;-67
2022/05/12 09:57:48;;;;;;;4.25;0.90;;;19.80;83.50;;;;;;5049609;28;20418;-67
2022/05/12 10:00:30;;;;;;;9.63;1.38;;;20.00;80.40;;;;;;5061059;28;20045;-67
2022/05/12 10:09:26;;;;;;;5.78;1.05;;;20.10;83.60;;;;;;5049033;28;20056;-67
2022/05/12 10:12:30;;;;;;;4.78;0.65;;;20.30;82.30;;;;;;5081308;28;20041;-68
2022/05/12 10:15:04;;;;;;;4.43;0.80;;;20.60;80.70;;;;;;5050033;28;20041;-67
2022/05/12 10:18:15;;;;;;;4.30;0.90;;;20.80;75.60;;;;;;5045142;28;20041;-67
2022/05/12 10:20:49;;;;;;;5.13;0.68;;;20.90;77.70;;;;;;5001650;28;20042;-67
2022/05/12 10:23:45;;;;;;;4.37;0.73;;;20.80;77.40;;;;;;4997405;28;20113;-67
2022/05/12 10:26:24;;;;;;;4.32;0.80;;;20.90;78.50;;;;;;5031829;28;20060;-67
2022/05/12 10:29:09;;;;;;;5.65;0.82;;;20.80;76.00;;;;;;5044483;28;20040;-67
2022/05/12 10:31:38;;;;;;;4.30;1.47;;;21.00;75.20;;;;;;5044234;28;20040;-68
2022/05/12 10:34:23;;;;;;;7.90;0.73;;;21.20;73.40;;;;;;5047502;28;20324;-67
2022/05/12 10:37:07;;;;;;;12.80;1.02;;;21.30;74.00;;;;;;5049185;28;20047;-67
2022/05/12 10:39:48;;;;;;;6.72;0.80;;;21.40;73.90;;;;;;5046061;28;20055;-67
2022/05/12 10:42:40;;;;;;;16.63;1.52;;;21.30;70.50;;;;;;5047781;28;20056;-67
2022/05/12 10:45:18;;;;;;;5.90;0.82;;;21.40;75.10;;;;;;5046204;28;20143;-67
2022/05/12 10:48:03;;;;;;;4.07;0.90;;;21.60;70.10;;;;;;5086123;28;20494;-67
2022/05/12 10:50:34;;;;;;;5.40;0.80;;;21.70;72.30;;;;;;5051233;28;20041;-67
2022/05/12 10:53:12;;;;;;;10.70;0.60;;;21.80;70.50;;;;;;5046480;28;20086;-67
2022/05/12 10:55:50;;;;;;;9.63;1.77;;;21.80;70.40;;;;;;5049207;28;20048;-67
2022/05/12 10:58:28;;;;;;;5.68;1.05;;;22.10;74.60;;;;;;5048821;28;20044;-67
2022/05/12 11:01:16;;;;;;;5.00;0.65;;;22.30;72.40;;;;;;5055769;28;20071;-67
2022/05/12 11:04:02;;;;;;;2.67;0.63;;;22.10;67.20;;;;;;5075966;28;20617;-67
2022/05/12 11:06:33;;;;;;;3.58;0.32;;;21.90;66.80;;;;;;5027228;28;20051;-67
2022/05/12 11:09:19;;;;;;;4.50;0.80;;;21.80;66.90;;;;;;5045061;28;20041;-67
2022/05/12 11:11:49;;;;;;;2.63;0.75;;;22.00;70.60;;;;;;5075282;28;20476;-67
2022/05/12 11:14:31;;;;;;;3.00;0.73;;;22.00;69.10;;;;;;5041423;28;20072;-67
2022/05/12 11:17:08;;;;;;;7.20;0.88;;;21.90;68.10;;;;;;5047820;28;20080;-67
2022/05/12 11:19:36;;;;;;;8.65;1.38;;;21.80;71.30;;;;;;5042536;28;20136;-67
2022/05/12 11:22:29;;;;;;;5.75;1.27;;;21.90;71.90;;;;;;5049828;28;20082;-67
2022/05/12 11:25:11;;;;;;;5.75;0.90;;;21.90;71.80;;;;;;5048670;28;20610;-67
2022/05/12 11:27:50;;;;;;;4.68;1.25;;;22.10;69.30;;;;;;5042937;28;20052;-69
2022/05/12 11:30:20;;;;;;;5.05;0.98;;;22.20;68.30;;;;;;5070899;28;20077;-68
2022/05/12 11:32:51;;;;;;;4.55;0.60;;;21.90;63.70;;;;;;5049661;28;21779;-68
2022/05/12 11:35:31;;;;;;;8.98;0.80;;;21.40;64.50;;;;;;5047364;28;20052;-68
2022/05/12 11:38:00;;;;;;;3.10;0.65;;;21.30;68.90;;;;;;5051242;28;20065;-67
2022/05/12 11:40:43;;;;;;;21.95;2.22;;;21.10;68.30;;;;;;5048417;28;20072;-68
2022/05/12 11:46:31;;;;;;;7.90;1.08;;;20.70;70.60;;;;;;5046845;28;20040;-67
2022/05/12 11:49:37;;;;;;;3.63;0.93;;;20.80;69.00;;;;;;5046091;28;20037;-67
2022/05/12 11:52:12;;;;;;;5.13;0.77;;;20.70;69.40;;;;;;5031762;28;20087;-67
2022/05/12 11:54:48;;;;;;;3.78;0.77;;;20.90;70.30;;;;;;5051155;28;20106;-68
2022/05/12 11:57:38;;;;;;;5.40;0.75;;;21.20;71.40;;;;;;5074433;28;20045;-68
2022/05/12 12:00:33;;;;;;;5.18;0.55;;;21.60;64.80;;;;;;5046072;28;20418;-68
2022/05/12 12:02:58;;;;;;;4.30;0.60;;;21.70;64.90;;;;;;5047460;28;20094;-68
2022/05/12 12:05:29;;;;;;;5.13;0.63;;;21.90;67.90;;;;;;5049011;28;20032;-68
2022/05/12 12:08:01;;;;;;;7.70;1.45;;;21.90;65.50;;;;;;5044127;28;20073;-67
2022/05/12 12:10:40;;;;;;;4.25;0.70;;;21.80;64.90;;;;;;5048895;28;20056;-67
2022/05/12 12:13:32;;;;;;;4.03;0.40;;;21.60;66.70;;;;;;5045620;28;20049;-67
2022/05/12 12:16:13;;;;;;;7.95;0.73;;;21.70;67.40;;;;;;5048247;28;20041;-68
2022/05/12 12:18:39;;;;;;;2.38;0.45;;;21.70;64.20;;;;;;5049180;28;20145;-67
2022/05/12 12:21:36;;;;;;;7.40;0.70;;;21.40;64.50;;;;;;5043679;28;20539;-67
2022/05/12 12:24:29;;;;;;;21.83;1.60;;;21.20;66.30;;;;;;5076503;28;20068;-67
2022/05/12 12:27:16;;;;;;;21.45;2.38;;;21.00;64.80;;;;;;5049995;28;20032;-67
2022/05/12 12:29:51;;;;;;;2.40;0.55;;;20.90;67.20;;;;;;5050925;28;20040;-67
2022/05/12 12:32:33;;;;;;;7.70;0.77;;;21.20;67.30;;;;;;5037036;28;20102;-67
2022/05/12 12:35:26;;;;;;;6.72;0.60;;;21.10;66.30;;;;;;5047056;28;20072;-67
2022/05/12 12:37:52;;;;;;;6.65;0.93;;;20.90;65.60;;;;;;5047193;28;20041;-67
2022/05/12 12:40:43;;;;;;;4.32;0.52;;;20.90;68.60;;;;;;5043774;28;20032;-67
2022/05/12 12:43:19;;;;;;;2.92;0.43;;;20.80;65.50;;;;;;5072002;28;20132;-67
2022/05/12 12:45:51;;;;;;;2.92;0.60;;;20.60;65.50;;;;;;5068624;28;20091;-67
2022/05/12 12:48:22;;;;;;;4.88;0.65;;;20.50;66.10;;;;;;5043496;28;20083;-67
2022/05/12 12:50:51;;;;;;;5.18;0.65;;;20.30;65.20;;;;;;5044229;28;20098;-67
2022/05/12 12:53:22;;;;;;;5.20;0.70;;;20.30;67.20;;;;;;5036767;28;20041;-67
2022/05/12 12:58:47;;;;;;;19.52;1.48;;;20.90;64.50;;;;;;5072779;28;20045;-68
2022/05/12 13:01:16;;;;;;;8.70;0.70;;;21.20;61.20;;;;;;5042318;28;20049;-66
2022/05/12 13:03:54;;;;;;;6.85;0.73;;;21.40;64.50;;;;;;5072466;28;20068;-66
2022/05/12 13:06:36;;;;;;;6.05;0.57;;;21.70;63.50;;;;;;5047332;28;20041;-67
2022/05/12 13:09:04;;;;;;;1.77;0.35;;;21.60;57.90;;;;;;5041366;28;20040;-67
2022/05/12 13:11:31;;;;;;;14.85;1.02;;;21.20;57.80;;;;;;5042261;28;20040;-67
2022/05/12 13:13:57;;;;;;;10.73;0.50;;;20.80;59.60;;;;;;5075216;28;20065;-67
2022/05/12 13:16:33;;;;;;;9.10;0.98;;;20.60;61.70;;;;;;5039777;28;20156;-67
2022/05/12 13:18:59;;;;;;;14.23;0.70;;;20.60;60.60;;;;;;5072799;28;20048;-67
2022/05/12 13:21:36;;;;;;;8.63;0.80;;;20.70;60.40;;;;;;5041695;28;20322;-66
2022/05/12 13:24:09;;;;;;;13.32;1.63;;;20.60;60.10;;;;;;5044603;28;20033;-67
2022/05/12 13:26:36;;;;;;;6.32;0.80;;;20.50;60.40;;;;;;5045805;28;20049;-67
2022/05/12 13:29:05;;;;;;;6.60;0.98;;;20.40;62.90;;;;;;5043856;28;20047;-67
2022/05/12 13:31:35;;;;;;;4.85;0.68;;;20.40;62.60;;;;;;5039616;28;20037;-67
2022/05/12 13:34:13;;;;;;;15.57;0.65;;;20.50;62.10;;;;;;5037091;28;20044;-67